Time;durP1;ratioP1;P1;durP2;ratioP2;P2;SDS_P1;SDS_P2;PMS_P1;PMS_P2;Temp;Humidity;BMP_temperature;BMP_pressure;BME280_temperature;BME280_humidity;BME280_pressure;Samples;Min_cycle;Max_cycle;Signal;HPM_P1;HPM_P2
2023/10/30 00:00:23;;;;;;;13.10;12.40;;;13.50;99.90;;;;;;4882531;29;20669;-48
2023/10/30 00:02:49;;;;;;;12.63;12.03;;;13.50;1.00;;;;;;4867661;29;20196;-51
2023/10/30 00:05:15;;;;;;;12.83;12.23;;;13.60;1.00;;;;;;4869491;29;20192;-48
2023/10/30 00:07:41;;;;;;;12.70;12.10;;;13.60;1.00;;;;;;4866446;29;20613;-47
2023/10/30 00:10:07;;;;;;;12.73;12.13;;;13.60;1.00;;;;;;4878976;29;20523;-49
2023/10/30 00:12:33;;;;;;;13.07;12.37;;;13.60;1.00;;;;;;4860671;29;20231;-48
2023/10/30 00:15:02;;;;;;;13.37;12.47;;;13.60;1.00;;;;;;4879416;29;20966;-51
2023/10/30 00:17:29;;;;;;;13.57;12.80;;;13.60;1.00;;;;;;4877418;29;20184;-44
2023/10/30 00:19:54;;;;;;;12.83;12.13;;;13.60;1.00;;;;;;4877432;29;20995;-48
2023/10/30 00:22:20;;;;;;;13.10;12.40;;;13.60;1.00;;;;;;4876758;29;20534;-48
2023/10/30 00:24:45;;;;;;;13.43;12.70;;;13.60;12.80;;;;;;4864335;29;20187;-48
2023/10/30 00:27:11;;;;;;;12.90;12.30;;;13.60;99.90;;;;;;4869259;29;20596;-51
2023/10/30 00:29:40;;;;;;;13.53;12.73;;;13.60;99.90;;;;;;4868316;29;20186;-51
2023/10/30 00:32:08;;;;;;;13.23;12.53;;;13.60;1.20;;;;;;4877033;29;20757;-48
2023/10/30 00:34:35;;;;;;;12.50;11.90;;;13.60;99.90;;;;;;4880551;29;20445;-50
2023/10/30 00:37:01;;;;;;;12.43;11.83;;;13.70;1.00;;;;;;4865939;29;20497;-46
2023/10/30 00:39:27;;;;;;;12.93;12.30;;;13.70;1.00;;;;;;4878139;29;20442;-53
2023/10/30 00:41:56;;;;;;;12.27;11.67;;;13.80;1.00;;;;;;4884534;29;20180;-51
2023/10/30 00:44:22;;;;;;;12.73;11.83;;;13.80;99.90;;;;;;4875748;29;20432;-52
2023/10/30 00:46:47;;;;;;;12.50;11.90;;;13.80;1.00;;;;;;4873554;29;20463;-46
2023/10/30 00:49:13;;;;;;;12.90;12.20;;;13.90;1.00;;;;;;4860212;29;20223;-51
2023/10/30 00:51:38;;;;;;;12.07;11.57;;;13.90;1.00;;;;;;4883379;29;20184;-46
2023/10/30 00:54:04;;;;;;;12.53;11.87;;;13.90;1.00;;;;;;4875732;29;20200;-51
2023/10/30 00:56:30;;;;;;;13.17;12.47;;;13.90;1.00;;;;;;4863455;29;20770;-46
2023/10/30 00:58:56;;;;;;;12.70;12.10;;;13.90;99.90;;;;;;4875911;29;20188;-49
2023/10/30 01:01:23;;;;;;;12.77;12.07;;;13.90;35.20;;;;;;4880440;29;20187;-47
2023/10/30 01:03:48;;;;;;;12.90;12.20;;;13.90;90.80;;;;;;4875408;29;20972;-48
2023/10/30 01:06:14;;;;;;;12.70;12.00;;;13.90;99.90;;;;;;4847228;29;20473;-49
2023/10/30 01:08:40;;;;;;;12.40;11.80;;;13.80;99.90;;;;;;4875335;29;20299;-49
2023/10/30 01:11:06;;;;;;;12.63;12.00;;;13.80;99.90;;;;;;4876803;29;20291;-47
2023/10/30 01:13:32;;;;;;;12.90;12.20;;;13.80;1.00;;;;;;4876444;29;20908;-47
2023/10/30 01:15:58;;;;;;;13.00;12.30;;;13.80;1.00;;;;;;4880698;29;20210;-49
2023/10/30 01:18:24;;;;;;;13.00;12.30;;;13.80;99.90;;;;;;4876198;29;20428;-53
2023/10/30 01:20:49;;;;;;;12.73;12.03;;;13.80;1.00;;;;;;4877415;29;20252;-48
2023/10/30 01:23:16;;;;;;;13.10;12.40;;;13.80;1.00;;;;;;4858907;29;20637;-49
2023/10/30 01:25:42;;;;;;;13.20;12.40;;;13.80;1.00;;;;;;4879177;29;20188;-49
2023/10/30 01:28:07;;;;;;;13.17;12.40;;;13.80;99.90;;;;;;4876343;29;21048;-52
2023/10/30 01:30:33;;;;;;;12.60;11.90;;;13.80;99.90;;;;;;4871172;29;20770;-53
2023/10/30 01:32:59;;;;;;;13.40;12.70;;;13.70;99.90;;;;;;4856970;29;20331;-48
2023/10/30 01:35:25;;;;;;;13.07;12.37;;;13.80;99.90;;;;;;4863976;29;20655;-50
2023/10/30 01:37:51;;;;;;;13.50;12.70;;;13.70;99.90;;;;;;4876861;29;20436;-51
2023/10/30 01:40:16;;;;;;;13.50;12.80;;;13.70;1.00;;;;;;4877850;29;20428;-47
2023/10/30 01:42:42;;;;;;;14.70;13.83;;;13.70;64.00;;;;;;4875794;29;20190;-52
2023/10/30 01:45:08;;;;;;;14.70;13.90;;;13.70;1.00;;;;;;4873152;29;20185;-51
2023/10/30 01:47:34;;;;;;;14.37;13.47;;;13.80;1.00;;;;;;4874162;29;20204;-50
2023/10/30 01:50:01;;;;;;;15.30;14.23;;;13.70;1.00;;;;;;4860304;29;20785;-51
2023/10/30 01:52:29;;;;;;;16.43;15.33;;;13.70;1.00;;;;;;4886533;29;20278;-47
2023/10/30 01:54:56;;;;;;;16.00;14.97;;;13.80;1.00;;;;;;4867536;29;20448;-47
2023/10/30 01:57:23;;;;;;;15.73;14.73;;;13.80;1.00;;;;;;4884589;29;20511;-47
2023/10/30 01:59:50;;;;;;;15.27;14.27;;;13.80;1.00;;;;;;4865071;29;20461;-49
2023/10/30 02:02:19;;;;;;;16.50;15.40;;;13.80;1.00;;;;;;4880076;29;20480;-48
2023/10/30 02:04:44;;;;;;;15.57;14.47;;;13.80;99.90;;;;;;4873708;29;20468;-51
2023/10/30 02:07:11;;;;;;;16.80;15.70;;;13.80;1.00;;;;;;4867757;29;20505;-49
2023/10/30 02:09:37;;;;;;;17.10;15.90;;;13.80;99.90;;;;;;4863585;29;20185;-48
2023/10/30 02:12:03;;;;;;;18.70;17.30;;;13.80;99.90;;;;;;4874676;29;20471;-52
2023/10/30 02:14:29;;;;;;;17.70;16.40;;;13.70;1.00;;;;;;4872963;29;20512;-47
2023/10/30 02:16:54;;;;;;;17.50;16.20;;;13.70;99.90;;;;;;4878763;29;20460;-52
2023/10/30 02:19:24;;;;;;;17.90;16.50;;;13.60;1.00;;;;;;4871575;29;20198;-53
2023/10/30 02:21:55;;;;;;;18.43;16.97;;;13.60;99.90;;;;;;4876825;29;20195;-48
2023/10/30 02:24:21;;;;;;;18.00;16.70;;;13.60;1.00;;;;;;4865063;29;20440;-53
2023/10/30 02:26:47;;;;;;;18.73;17.10;;;13.60;99.90;;;;;;4872192;29;20482;-50
2023/10/30 02:29:13;;;;;;;22.50;17.10;;;13.50;99.90;;;;;;4875519;29;20421;-51
2023/10/30 02:31:39;;;;;;;19.20;17.70;;;13.50;99.90;;;;;;4883271;29;20426;-46
2023/10/30 02:34:04;;;;;;;18.80;17.30;;;13.40;99.90;;;;;;4870222;29;20183;-48
2023/10/30 02:36:30;;;;;;;18.93;17.53;;;13.40;99.90;;;;;;4878026;29;20618;-48
2023/10/30 02:38:56;;;;;;;18.47;16.97;;;13.40;99.90;;;;;;4865263;29;20189;-51
2023/10/30 02:41:22;;;;;;;18.97;17.47;;;13.40;99.90;;;;;;4842189;29;20210;-46
2023/10/30 02:43:47;;;;;;;20.20;18.07;;;13.40;99.90;;;;;;4859242;29;20204;-50
2023/10/30 02:46:13;;;;;;;18.03;16.73;;;13.40;99.90;;;;;;4872422;29;20508;-50
2023/10/30 02:48:39;;;;;;;18.77;17.27;;;13.40;99.90;;;;;;4880841;29;20497;-48
2023/10/30 02:51:05;;;;;;;18.50;17.10;;;13.40;99.90;;;;;;4878971;29;20543;-51
2023/10/30 02:53:31;;;;;;;18.87;17.40;;;13.30;1.00;;;;;;4871220;29;20273;-54
2023/10/30 02:55:56;;;;;;;19.30;17.80;;;13.30;1.00;;;;;;4863262;29;20530;-49
2023/10/30 02:58:22;;;;;;;18.27;16.80;;;13.20;1.00;;;;;;4874070;29;20200;-47
2023/10/30 03:00:48;;;;;;;18.90;17.40;;;13.20;1.00;;;;;;4875752;29;20701;-51
2023/10/30 03:03:14;;;;;;;18.70;17.30;;;13.20;1.00;;;;;;4866833;29;20196;-52
2023/10/30 03:05:40;;;;;;;19.07;17.57;;;13.20;1.00;;;;;;4867653;29;20951;-48
2023/10/30 03:08:05;;;;;;;19.10;17.63;;;13.20;1.00;;;;;;4880631;29;20290;-49
2023/10/30 03:10:31;;;;;;;19.00;17.60;;;13.20;1.00;;;;;;4875079;29;20796;-47
2023/10/30 03:12:57;;;;;;;18.50;17.13;;;13.10;1.00;;;;;;4884407;29;20666;-46
2023/10/30 03:15:22;;;;;;;18.30;16.90;;;13.10;1.00;;;;;;4875371;29;20566;-49
2023/10/30 03:17:48;;;;;;;19.33;17.80;;;13.10;1.00;;;;;;4886493;29;20183;-48
2023/10/30 03:20:14;;;;;;;18.53;17.03;;;13.00;1.00;;;;;;4861571;29;20200;-48
2023/10/30 03:22:40;;;;;;;19.20;17.70;;;13.00;1.00;;;;;;4882410;29;20191;-49
2023/10/30 03:25:06;;;;;;;20.33;18.70;;;12.90;1.00;;;;;;4871343;29;20197;-51
2023/10/30 03:27:33;;;;;;;19.77;18.20;;;12.90;1.00;;;;;;4870400;29;20950;-48
2023/10/30 03:29:59;;;;;;;18.93;17.43;;;12.80;1.00;;;;;;4877482;29;20535;-47
2023/10/30 03:32:24;;;;;;;19.73;18.20;;;12.90;1.00;;;;;;4879190;29;20946;-51
2023/10/30 03:34:50;;;;;;;19.37;17.87;;;12.90;1.00;;;;;;4875467;29;20450;-50
2023/10/30 03:37:16;;;;;;;19.50;17.90;;;12.90;1.00;;;;;;4876103;29;20192;-50
2023/10/30 03:39:41;;;;;;;20.07;18.27;;;12.90;1.00;;;;;;4861478;29;20195;-49
2023/10/30 03:42:07;;;;;;;19.43;17.83;;;12.90;1.00;;;;;;4877071;29;20210;-52
2023/10/30 03:44:33;;;;;;;17.90;16.57;;;12.90;1.00;;;;;;4877622;29;20188;-48
2023/10/30 03:46:58;;;;;;;18.53;17.13;;;13.00;1.00;;;;;;4877576;29;20216;-50
2023/10/30 03:49:24;;;;;;;17.70;16.30;;;12.90;1.00;;;;;;4888798;29;20191;-52
2023/10/30 03:51:51;;;;;;;19.47;17.87;;;12.90;1.00;;;;;;4874203;29;20188;-50
2023/10/30 03:54:16;;;;;;;18.97;17.47;;;12.90;1.00;;;;;;4874444;29;20233;-48
2023/10/30 03:56:42;;;;;;;18.87;17.37;;;12.90;1.00;;;;;;4864367;29;20452;-46
2023/10/30 03:59:08;;;;;;;19.33;17.73;;;12.90;1.00;;;;;;4856498;29;20823;-50
2023/10/30 04:01:35;;;;;;;19.07;17.63;;;12.80;1.00;;;;;;4874338;29;20199;-48
2023/10/30 04:04:01;;;;;;;17.67;16.23;;;12.80;1.00;;;;;;4870563;29;20651;-47
2023/10/30 04:06:27;;;;;;;19.13;17.47;;;12.70;1.00;;;;;;4863903;29;20453;-52
2023/10/30 04:08:52;;;;;;;18.60;17.10;;;12.70;1.00;;;;;;4881107;29;20951;-51
2023/10/30 04:11:18;;;;;;;17.70;16.30;;;12.70;1.00;;;;;;4859779;29;20232;-50
2023/10/30 04:13:44;;;;;;;19.27;17.77;;;12.70;1.00;;;;;;4879157;29;20200;-49
2023/10/30 04:16:11;;;;;;;19.17;17.77;;;12.70;1.00;;;;;;4872827;29;20274;-49
2023/10/30 04:18:37;;;;;;;18.20;16.80;;;12.60;1.00;;;;;;4865466;29;20495;-48
2023/10/30 04:21:04;;;;;;;19.20;17.50;;;12.60;1.00;;;;;;4871719;29;20927;-48
2023/10/30 04:23:30;;;;;;;18.47;16.97;;;12.60;1.00;;;;;;4878418;29;20502;-47
2023/10/30 04:25:56;;;;;;;18.90;17.40;;;12.50;1.00;;;;;;4878841;29;20452;-46
2023/10/30 04:28:21;;;;;;;18.40;17.00;;;12.50;1.00;;;;;;4867349;29;20266;-47
2023/10/30 04:30:47;;;;;;;19.13;17.63;;;12.50;1.00;;;;;;4881963;29;20424;-48
2023/10/30 04:33:13;;;;;;;17.70;16.40;;;12.40;1.00;;;;;;4873959;29;20383;-50
2023/10/30 04:35:38;;;;;;;17.20;15.90;;;12.30;1.00;;;;;;4871645;29;20436;-50
2023/10/30 04:38:04;;;;;;;18.50;17.13;;;12.30;1.00;;;;;;4845407;29;20196;-47
2023/10/30 04:40:30;;;;;;;17.40;16.10;;;12.30;1.00;;;;;;4864775;29;20810;-53
2023/10/30 04:42:56;;;;;;;17.70;16.20;;;12.30;1.00;;;;;;4868428;29;20445;-49
2023/10/30 04:45:21;;;;;;;17.90;16.50;;;12.20;1.00;;;;;;4878876;29;20229;-46
2023/10/30 04:47:47;;;;;;;17.73;16.17;;;12.20;1.00;;;;;;4860565;29;20250;-48
2023/10/30 04:50:13;;;;;;;18.17;16.83;;;12.10;1.00;;;;;;4874746;29;20193;-51
2023/10/30 04:52:38;;;;;;;17.73;16.43;;;12.00;1.00;;;;;;4870528;29;20180;-49
2023/10/30 04:55:04;;;;;;;17.03;15.83;;;12.00;1.00;;;;;;4870325;29;20279;-52
2023/10/30 04:57:30;;;;;;;17.77;16.47;;;12.00;1.00;;;;;;4857363;29;20195;-50
2023/10/30 04:59:56;;;;;;;17.27;16.07;;;11.90;1.60;;;;;;4853984;29;20457;-51
2023/10/30 05:02:21;;;;;;;17.90;16.37;;;11.90;5.40;;;;;;4862183;29;20221;-51
2023/10/30 05:04:47;;;;;;;17.43;16.13;;;11.80;5.50;;;;;;4876320;29;20220;-48
2023/10/30 05:07:12;;;;;;;17.33;16.03;;;11.80;6.70;;;;;;4868115;29;20222;-50
2023/10/30 05:09:38;;;;;;;17.47;16.17;;;11.80;15.00;;;;;;4859562;29;20182;-48
2023/10/30 05:12:04;;;;;;;17.47;16.07;;;11.70;25.50;;;;;;4875090;29;20228;-51
2023/10/30 05:14:30;;;;;;;16.53;15.33;;;11.70;38.00;;;;;;4874710;29;20189;-47
2023/10/30 05:16:56;;;;;;;16.53;15.33;;;11.70;45.00;;;;;;4875875;29;20444;-53
2023/10/30 05:19:21;;;;;;;17.80;16.40;;;11.70;54.40;;;;;;4875324;29;20219;-47
2023/10/30 05:21:47;;;;;;;17.50;16.10;;;11.70;63.20;;;;;;4891745;29;20211;-46
2023/10/30 05:24:12;;;;;;;17.07;15.77;;;11.70;71.80;;;;;;4879859;29;20392;-47
2023/10/30 05:26:39;;;;;;;16.20;15.00;;;11.70;75.80;;;;;;4878779;29;20183;-47
2023/10/30 05:29:04;;;;;;;17.13;15.73;;;11.70;81.40;;;;;;4877530;29;20168;-51
2023/10/30 05:31:30;;;;;;;16.60;15.40;;;11.70;90.20;;;;;;4877443;29;21182;-48
2023/10/30 05:33:55;;;;;;;16.70;15.50;;;11.70;93.40;;;;;;4877219;29;20210;-47
2023/10/30 05:36:21;;;;;;;16.33;15.13;;;11.70;94.30;;;;;;4873712;29;20284;-48
2023/10/30 05:38:47;;;;;;;17.83;16.37;;;11.70;93.10;;;;;;4886759;29;20710;-46
2023/10/30 05:41:12;;;;;;;16.33;15.17;;;11.70;94.20;;;;;;4877509;29;20228;-45
2023/10/30 05:43:38;;;;;;;18.23;16.70;;;11.70;97.10;;;;;;4858191;29;20199;-54
2023/10/30 05:46:03;;;;;;;18.10;16.50;;;11.70;99.90;;;;;;4888217;29;20180;-47
2023/10/30 05:48:29;;;;;;;18.10;16.60;;;11.70;99.90;;;;;;4869673;29;20265;-45
2023/10/30 05:50:55;;;;;;;16.50;15.13;;;11.70;99.90;;;;;;4875614;29;20241;-48
2023/10/30 05:53:20;;;;;;;18.00;16.50;;;11.60;99.90;;;;;;4862541;29;20248;-49
2023/10/30 05:55:46;;;;;;;17.13;15.90;;;11.60;99.90;;;;;;4879248;29;20193;-48
2023/10/30 05:58:12;;;;;;;17.17;15.83;;;11.60;99.90;;;;;;4866405;29;20671;-52
2023/10/30 06:00:38;;;;;;;17.23;15.90;;;11.60;99.90;;;;;;4854848;29;20655;-48
2023/10/30 06:03:13;;;;;;;16.40;15.10;;;11.60;99.90;;;;;;4874137;29;20455;-48
2023/10/30 06:05:39;;;;;;;17.13;15.83;;;11.60;99.90;;;;;;4884042;29;20418;-48
2023/10/30 06:08:05;;;;;;;16.27;15.07;;;11.60;99.90;;;;;;4874930;29;20468;-49
2023/10/30 06:10:30;;;;;;;14.67;13.47;;;11.60;99.90;;;;;;4873347;29;20264;-49
2023/10/30 06:12:56;;;;;;;14.93;13.93;;;11.60;99.90;;;;;;4869280;29;20196;-52
2023/10/30 06:15:22;;;;;;;15.47;14.27;;;11.60;99.90;;;;;;4871238;29;20183;-46
2023/10/30 06:17:48;;;;;;;15.10;14.00;;;11.60;99.90;;;;;;4875682;29;20270;-50
2023/10/30 06:20:13;;;;;;;15.50;14.30;;;11.70;99.90;;;;;;4878555;29;21099;-48
2023/10/30 06:22:39;;;;;;;15.13;14.03;;;11.70;99.90;;;;;;4875617;29;20194;-47
2023/10/30 06:25:05;;;;;;;14.20;13.20;;;11.80;99.90;;;;;;4877616;29;20650;-48
2023/10/30 06:27:34;;;;;;;13.63;12.70;;;11.80;99.90;;;;;;4875421;29;20203;-47
2023/10/30 06:30:00;;;;;;;14.63;13.63;;;11.90;56.10;;;;;;4874123;29;20519;-49
2023/10/30 06:32:25;;;;;;;14.40;13.50;;;11.90;30.40;;;;;;4867198;29;20995;-50
2023/10/30 06:34:51;;;;;;;13.93;12.77;;;12.00;12.00;;;;;;4878894;29;20191;-49
2023/10/30 06:37:16;;;;;;;13.67;12.77;;;12.10;1.00;;;;;;4875681;29;20199;-49
2023/10/30 06:39:42;;;;;;;14.10;13.20;;;12.10;1.00;;;;;;4856548;29;20223;-52
2023/10/30 06:42:08;;;;;;;13.27;12.47;;;12.20;1.00;;;;;;4882416;29;20187;-51
2023/10/30 06:44:34;;;;;;;14.80;13.70;;;12.20;1.00;;;;;;4862587;29;20257;-48
2023/10/30 06:46:59;;;;;;;14.53;13.53;;;12.20;1.00;;;;;;4876988;29;20262;-48
2023/10/30 06:49:25;;;;;;;12.40;11.70;;;12.30;1.00;;;;;;4873839;29;20214;-53
2023/10/30 06:51:51;;;;;;;13.57;12.67;;;12.30;1.00;;;;;;4888387;29;20530;-50
2023/10/30 06:54:16;;;;;;;13.90;13.00;;;12.40;1.00;;;;;;4850653;29;20185;-51
2023/10/30 06:56:42;;;;;;;13.80;12.90;;;12.40;1.00;;;;;;4880071;29;20183;-48
2023/10/30 06:59:13;;;;;;;14.47;13.57;;;12.50;1.00;;;;;;4877492;29;20185;-48
2023/10/30 07:01:43;;;;;;;14.07;13.13;;;12.50;1.00;;;;;;4872639;29;20216;-51
2023/10/30 07:04:10;;;;;;;15.27;14.27;;;12.60;1.00;;;;;;4876694;29;20440;-51
2023/10/30 07:06:43;;;;;;;14.37;13.40;;;12.60;1.00;;;;;;4877749;29;20490;-51
2023/10/30 07:09:09;;;;;;;14.60;13.60;;;12.80;1.00;;;;;;4875745;29;20439;-49
2023/10/30 07:11:36;;;;;;;14.87;13.60;;;12.80;1.00;;;;;;4877737;29;20472;-46
2023/10/30 07:14:02;;;;;;;15.50;14.50;;;13.00;1.00;;;;;;4870881;29;20439;-46
2023/10/30 07:16:29;;;;;;;13.90;13.00;;;13.00;1.00;;;;;;4873349;29;20464;-51
2023/10/30 07:18:58;;;;;;;15.70;14.70;;;13.10;1.00;;;;;;4877042;29;20468;-52
2023/10/30 07:21:25;;;;;;;14.70;13.70;;;13.20;99.90;;;;;;4876220;29;20440;-47
2023/10/30 07:23:50;;;;;;;15.60;14.60;;;13.30;99.90;;;;;;4878540;29;20439;-49
2023/10/30 07:26:17;;;;;;;14.90;13.83;;;13.40;1.00;;;;;;4881302;29;20466;-48
2023/10/30 07:28:43;;;;;;;16.00;14.90;;;13.50;1.00;;;;;;4886399;29;20211;-53
2023/10/30 07:31:09;;;;;;;15.53;14.43;;;13.50;99.90;;;;;;4873951;29;20465;-52
2023/10/30 07:33:34;;;;;;;15.50;14.40;;;13.60;99.90;;;;;;4874319;29;20444;-50
2023/10/30 07:36:01;;;;;;;16.13;15.03;;;13.70;99.90;;;;;;4880776;29;20252;-51
2023/10/30 07:38:29;;;;;;;15.63;14.43;;;13.80;1.00;;;;;;4880432;29;20531;-49
2023/10/30 07:40:55;;;;;;;16.37;15.27;;;13.80;1.00;;;;;;4876068;29;20884;-49
2023/10/30 07:43:21;;;;;;;14.33;13.43;;;13.90;1.00;;;;;;4883832;29;20503;-49
2023/10/30 07:45:50;;;;;;;14.93;13.93;;;13.90;1.00;;;;;;4875347;29;20428;-52
2023/10/30 07:48:16;;;;;;;15.43;14.53;;;14.00;99.90;;;;;;4879826;29;20211;-49
2023/10/30 07:50:43;;;;;;;15.40;14.30;;;14.00;1.00;;;;;;4875187;29;20516;-50
2023/10/30 07:53:09;;;;;;;14.93;14.03;;;14.30;1.00;;;;;;4878110;29;20517;-48
2023/10/30 07:55:36;;;;;;;14.93;13.70;;;14.80;1.00;;;;;;4876207;29;20553;-48
2023/10/30 07:58:04;;;;;;;14.33;13.43;;;15.40;99.90;;;;;;4879543;29;20188;-49
2023/10/30 08:00:30;;;;;;;14.70;13.80;;;16.00;99.90;;;;;;4877209;29;20432;-47
2023/10/30 08:02:55;;;;;;;13.90;13.10;;;16.50;99.90;;;;;;4876258;29;20455;-45
2023/10/30 08:05:22;;;;;;;13.00;12.20;;;16.80;1.00;;;;;;4877613;29;20192;-51
2023/10/30 08:07:48;;;;;;;13.47;12.67;;;16.90;1.00;;;;;;4874820;29;20535;-49
2023/10/30 08:10:14;;;;;;;12.63;11.93;;;16.90;1.00;;;;;;4872610;29;20435;-46
2023/10/30 08:12:40;;;;;;;14.23;13.23;;;16.60;1.00;;;;;;4881104;29;21124;-50
2023/10/30 08:15:09;;;;;;;13.80;12.90;;;16.40;1.00;;;;;;4875730;29;20233;-50
2023/10/30 08:17:36;;;;;;;14.50;13.60;;;16.10;1.00;;;;;;4868975;29;20444;-48
2023/10/30 08:20:03;;;;;;;13.50;12.70;;;16.00;1.00;;;;;;4850346;29;20488;-51
2023/10/30 08:22:29;;;;;;;13.43;12.60;;;16.10;26.60;;;;;;4875571;29;20451;-46
2023/10/30 08:24:55;;;;;;;14.27;13.47;;;16.50;7.40;;;;;;4877490;29;21085;-49
2023/10/30 08:27:20;;;;;;;14.73;13.53;;;17.00;1.00;;;;;;4875191;29;20269;-45
2023/10/30 08:29:46;;;;;;;13.23;12.43;;;17.20;1.00;;;;;;4867177;29;20196;-48
2023/10/30 08:32:13;;;;;;;14.00;13.13;;;17.30;1.00;;;;;;4872741;29;20643;-46
2023/10/30 08:34:38;;;;;;;12.30;11.67;;;17.20;1.00;;;;;;4866837;29;20275;-48
2023/10/30 08:37:04;;;;;;;13.60;12.70;;;17.10;1.00;;;;;;4866207;29;21227;-49
2023/10/30 08:39:30;;;;;;;13.83;12.93;;;17.00;1.00;;;;;;4870274;29;20557;-46
2023/10/30 08:41:55;;;;;;;12.30;11.60;;;16.90;1.00;;;;;;4864467;29;20249;-45
2023/10/30 08:44:21;;;;;;;13.30;12.60;;;16.90;1.00;;;;;;4858486;29;20210;-47
2023/10/30 08:46:46;;;;;;;13.17;12.40;;;16.80;1.00;;;;;;4868174;29;20231;-52
2023/10/30 08:49:12;;;;;;;13.07;12.37;;;16.70;1.00;;;;;;4879685;29;20184;-46
2023/10/30 08:51:41;;;;;;;12.20;11.60;;;16.60;1.00;;;;;;4868635;29;20589;-45
2023/10/30 08:54:07;;;;;;;12.53;11.83;;;16.50;1.00;;;;;;4873484;29;20228;-45
2023/10/30 08:56:33;;;;;;;13.60;12.70;;;16.60;1.00;;;;;;4873277;29;20561;-50
2023/10/30 08:58:59;;;;;;;12.43;11.83;;;16.60;1.00;;;;;;4856905;29;20991;-45
2023/10/30 09:01:26;;;;;;;12.77;12.10;;;16.60;1.00;;;;;;4873868;29;20188;-45
2023/10/30 09:03:52;;;;;;;12.80;12.10;;;16.60;1.00;;;;;;4885255;29;20289;-50
2023/10/30 09:06:18;;;;;;;13.57;12.80;;;16.60;1.00;;;;;;4875116;29;20520;-47
2023/10/30 09:08:44;;;;;;;13.03;12.20;;;16.60;1.00;;;;;;4872911;29;20519;-44
2023/10/30 09:11:09;;;;;;;12.60;11.90;;;16.80;1.00;;;;;;4867836;29;20284;-45
2023/10/30 09:13:35;;;;;;;11.80;11.20;;;16.80;1.00;;;;;;4880806;29;20206;-52
2023/10/30 09:16:00;;;;;;;12.80;12.20;;;17.00;1.00;;;;;;4861323;29;20312;-48
2023/10/30 09:18:26;;;;;;;12.13;11.53;;;17.10;1.00;;;;;;4875916;29;20729;-49
2023/10/30 09:20:52;;;;;;;12.80;12.00;;;17.20;1.00;;;;;;4875546;29;20308;-45
2023/10/30 09:23:18;;;;;;;12.17;11.57;;;17.40;1.00;;;;;;4872632;29;20269;-47
2023/10/30 09:25:44;;;;;;;12.17;11.57;;;17.50;1.00;;;;;;4875366;29;20199;-50
2023/10/30 09:28:10;;;;;;;12.50;11.80;;;17.60;1.00;;;;;;4869502;29;20483;-46
2023/10/30 09:30:36;;;;;;;12.13;11.43;;;17.60;1.00;;;;;;4866381;29;20189;-47
2023/10/30 09:33:02;;;;;;;11.10;10.50;;;17.90;1.00;;;;;;4868739;29;20428;-47
2023/10/30 09:35:30;;;;;;;12.30;11.70;;;18.10;1.00;;;;;;4878724;29;20211;-49
2023/10/30 09:37:56;;;;;;;12.00;11.30;;;18.30;1.00;;;;;;4872512;29;20460;-50
2023/10/30 09:40:26;;;;;;;13.20;12.50;;;18.40;1.00;;;;;;4894212;29;20851;-46
2023/10/30 09:42:52;;;;;;;12.90;12.10;;;18.70;1.00;;;;;;4867533;29;20443;-51
2023/10/30 09:45:26;;;;;;;12.37;11.77;;;19.10;1.00;;;;;;4893178;29;20930;-46
2023/10/30 09:47:56;;;;;;;11.70;11.10;;;19.30;1.00;;;;;;4872560;29;20512;-47
2023/10/30 09:50:23;;;;;;;11.90;11.40;;;19.70;1.00;;;;;;4873548;29;20445;-45
2023/10/30 09:52:51;;;;;;;12.30;11.57;;;20.00;1.00;;;;;;4853970;29;20944;-48
2023/10/30 09:55:22;;;;;;;10.47;9.97;;;20.10;1.00;;;;;;4874017;29;20518;-50
2023/10/30 09:57:48;;;;;;;11.80;11.20;;;19.80;1.00;;;;;;4873917;29;20939;-45
2023/10/30 10:00:16;;;;;;;11.30;10.80;;;19.90;1.00;;;;;;4842780;29;20960;-49
2023/10/30 10:02:42;;;;;;;10.90;10.40;;;20.10;1.00;;;;;;4860549;29;20428;-45
2023/10/30 10:05:09;;;;;;;11.57;10.97;;;20.20;1.00;;;;;;4876844;29;21569;-44
2023/10/30 10:07:35;;;;;;;11.20;10.70;;;20.30;1.00;;;;;;4865102;29;20216;-45
2023/10/30 10:10:03;;;;;;;11.30;10.70;;;20.30;1.00;;;;;;4882129;29;20438;-44
2023/10/30 10:12:30;;;;;;;11.40;10.80;;;20.60;1.00;;;;;;4871743;29;20224;-46
2023/10/30 10:14:55;;;;;;;11.87;11.17;;;21.20;99.90;;;;;;4882955;29;20445;-46
2023/10/30 10:17:21;;;;;;;11.23;10.73;;;21.80;99.90;;;;;;4851506;29;20482;-47
2023/10/30 10:19:47;;;;;;;11.20;10.70;;;22.50;99.90;;;;;;4880436;29;20187;-46
2023/10/30 10:22:30;;;;;;;11.97;11.37;;;23.30;99.90;;;;;;4872499;29;20220;-51
2023/10/30 10:24:56;;;;;;;11.30;10.80;;;24.50;99.90;;;;;;4878731;29;21005;-47
2023/10/30 10:27:24;;;;;;;11.67;11.07;;;25.30;99.90;;;;;;4871297;29;20479;-48
2023/10/30 10:29:57;;;;;;;11.27;10.77;;;25.70;99.90;;;;;;4875732;29;20210;-47
2023/10/30 10:32:26;;;;;;;10.80;10.30;;;26.00;99.90;;;;;;4869503;29;20996;-51
2023/10/30 10:34:54;;;;;;;11.77;11.17;;;26.20;99.90;;;;;;4874908;29;20496;-46
2023/10/30 10:37:20;;;;;;;11.77;11.17;;;26.10;99.90;;;;;;4864991;29;20439;-46
2023/10/30 10:39:50;;;;;;;10.80;10.30;;;26.10;99.90;;;;;;4873517;29;20435;-45
2023/10/30 10:42:20;;;;;;;12.00;11.40;;;26.50;99.90;;;;;;4857207;29;20437;-49
2023/10/30 10:44:49;;;;;;;11.93;11.33;;;26.90;99.90;;;;;;4864416;29;20503;-50
2023/10/30 10:47:16;;;;;;;12.20;11.50;;;27.20;99.90;;;;;;4868783;29;20471;-48
2023/10/30 10:49:42;;;;;;;11.40;10.90;;;27.50;99.90;;;;;;4877703;29;20435;-50
2023/10/30 10:52:13;;;;;;;10.90;10.40;;;27.60;99.90;;;;;;4875010;29;20923;-51
2023/10/30 10:54:59;;;;;;;11.90;11.30;;;27.80;99.90;;;;;;4877849;29;20191;-50
2023/10/30 10:57:28;;;;;;;11.87;11.03;;;28.00;99.90;;;;;;4873435;29;20496;-44
2023/10/30 11:00:06;;;;;;;12.30;11.70;;;28.00;99.90;;;;;;4879368;29;20434;-47
2023/10/30 11:02:37;;;;;;;11.77;11.27;;;28.10;99.90;;;;;;4871167;29;20456;-46
2023/10/30 11:05:05;;;;;;;11.83;11.23;;;28.20;99.90;;;;;;4875983;29;20443;-51
2023/10/30 11:07:46;;;;;;;11.57;11.00;;;28.20;99.90;;;;;;4876130;29;20508;-46
2023/10/30 11:10:25;;;;;;;12.10;11.50;;;27.90;99.90;;;;;;4880455;29;20459;-41
2023/10/30 11:13:10;;;;;;;11.20;10.60;;;27.70;99.90;;;;;;4881975;29;20480;-49
2023/10/30 11:15:40;;;;;;;12.00;11.30;;;27.60;99.90;;;;;;4882615;29;20515;-47
2023/10/30 11:18:21;;;;;;;11.97;11.47;;;27.60;99.90;;;;;;4893129;29;20487;-50
2023/10/30 11:20:52;;;;;;;11.10;10.60;;;27.50;99.90;;;;;;4883523;29;20484;-53
2023/10/30 11:23:44;;;;;;;11.60;11.00;;;27.20;99.90;;;;;;4870782;29;20444;-49
2023/10/30 11:26:30;;;;;;;12.60;11.70;;;27.10;99.90;;;;;;4873290;29;20428;-50
2023/10/30 11:29:08;;;;;;;13.20;12.40;;;26.50;99.90;;;;;;4876777;29;20570;-49
2023/10/30 11:32:00;;;;;;;11.10;10.60;;;26.40;99.90;;;;;;4878360;29;20986;-49
2023/10/30 11:34:30;;;;;;;12.00;11.40;;;26.40;99.90;;;;;;4869593;29;20442;-47
2023/10/30 11:37:03;;;;;;;11.30;10.70;;;26.70;99.90;;;;;;4878448;29;20432;-51
2023/10/30 11:39:37;;;;;;;12.00;11.30;;;27.00;99.90;;;;;;4876579;29;20456;-50
2023/10/30 11:42:04;;;;;;;11.60;11.10;;;27.10;99.90;;;;;;4875768;29;21212;-45
2023/10/30 11:44:31;;;;;;;12.10;11.50;;;27.20;99.90;;;;;;4873738;29;20476;-47
2023/10/30 11:46:58;;;;;;;12.23;11.63;;;27.60;99.90;;;;;;4876398;29;20433;-43
2023/10/30 11:49:30;;;;;;;10.67;10.17;;;27.60;99.90;;;;;;4875566;29;20424;-46
2023/10/30 11:51:57;;;;;;;11.77;11.17;;;27.70;99.90;;;;;;4879638;29;20433;-51
2023/10/30 11:54:32;;;;;;;12.00;11.43;;;27.60;99.90;;;;;;4875709;29;20428;-53
2023/10/30 11:57:00;;;;;;;11.87;11.17;;;27.20;99.90;;;;;;4879088;29;20427;-52
2023/10/30 11:59:27;;;;;;;11.67;11.07;;;27.30;99.90;;;;;;4874746;29;20420;-48
2023/10/30 12:01:54;;;;;;;12.47;11.83;;;27.40;99.90;;;;;;4876144;29;20493;-49
2023/10/30 12:04:21;;;;;;;11.67;11.07;;;27.40;99.90;;;;;;4875662;29;20420;-46
2023/10/30 12:06:46;;;;;;;12.63;12.00;;;27.10;99.90;;;;;;4875729;29;20420;-49
2023/10/30 12:09:12;;;;;;;12.63;11.93;;;26.50;99.90;;;;;;4875830;29;20995;-47
2023/10/30 12:11:38;;;;;;;12.10;11.50;;;26.00;99.90;;;;;;4876971;29;20235;-49
2023/10/30 12:14:04;;;;;;;12.20;11.47;;;25.90;99.90;;;;;;4874448;29;20196;-47
2023/10/30 12:16:30;;;;;;;11.77;11.17;;;25.70;99.90;;;;;;4878312;29;20687;-45
2023/10/30 12:18:57;;;;;;;12.27;11.60;;;25.40;99.90;;;;;;4876732;29;20444;-48
2023/10/30 12:21:22;;;;;;;11.77;11.17;;;25.10;99.90;;;;;;4878913;29;20199;-45
2023/10/30 12:23:49;;;;;;;12.87;12.17;;;25.00;99.90;;;;;;4876151;29;20429;-48
2023/10/30 12:26:15;;;;;;;12.87;12.13;;;24.90;99.90;;;;;;4877432;29;20687;-48
2023/10/30 12:28:40;;;;;;;11.97;11.37;;;24.90;99.90;;;;;;4873565;29;20480;-47
2023/10/30 12:31:16;;;;;;;11.80;11.10;;;25.00;99.90;;;;;;4874197;29;20183;-47